Latest Coastal Weather Observations for Cape Grim

IDV60701

Issued at 3:51 am EDT Wednesday 1 April 2015 (issued every 10 minutes, with the page automatically refreshed every 10 minutes)

About coastal observations | Map of coastal stations | Coastal observations for VIC | Marine services | Other Formats
Station Details ID: 091331 Name: CAPE GRIM Lat: -40.68 Lon: 144.69 Height: 86.0 m
Data from the previous 72 hours. | See also: Recent months at Cape Grim
Date/Time
EDT
Temp

°C
Wind Pressure Rain
since 9am
mm
Weather Cloud Vis
km
Sea
Height
m
Swell
Dir
 
Speed
knots
Gust
knots
hPa Trend Height
m
Period
s
Dir
01/03:30am 14.8 NE 14 16 1019.2 - - - Partly cloudy - - - - -
01/03:00am 14.7 NE 14 16 1019.7 - 0.0 - Mostly cloudy - - - - -
01/02:30am 14.2 NE 13 15 1020.1 - - - - - - - - -
01/02:00am 14.2 NE 12 14 1020.5 - - - - - - - - -
01/01:30am 13.9 NE 11 13 1021.0 - - - - - - - - -
01/01:00am 13.7 NE 12 13 1021.2 - - - - - - - - -
01/12:30am 13.8 NE 14 16 1021.3 - - - - - - - - -
01/12:00am 13.5 NE 13 15 1021.6 - - - - - - - - -
 
Date/Time
EDT
Temp

°C
Wind Pressure Rain
since 9am
mm
Weather Cloud Vis
km
Sea
Height
m
Swell
Dir
 
Speed
knots
Gust
knots
hPa Trend Height
m
Period
s
Dir
31/11:30pm 12.6 NE 10 11 1022.0 - - - - - - - - -
31/11:00pm 12.2 NE 9 10 1022.3 - - - - - - - - -
31/10:30pm 11.9 ENE 10 11 1022.4 - - - - - - - - -
31/10:00pm 11.8 ENE 9 9 1022.5 - - - - - - - - -
31/09:30pm 12.6 ENE 7 7 1022.8 - - - - - - - - -
31/09:00pm 12.7 ENE 6 7 1022.8 - - - - - - - - -
31/08:30pm 12.9 ENE 6 7 1023.0 - - - Partly cloudy - - - - -
31/08:00pm 14.3 SSW 3 4 1023.0 - - - Cloudy - - - - -
31/07:30pm 14.6 CALM 0 0 1022.9 - - - Cloudy - - - - -
31/07:00pm 14.8 SW 4 6 1022.9 - - - Cloudy - - - - -
31/06:30pm 14.9 WSW 3 5 1022.8 - - - Cloudy - - - - -
31/06:00pm 15.0 WSW 4 5 1022.9 - - - Cloudy - - - - -
31/05:30pm 15.2 WSW 4 5 1022.8 - - - Cloudy - - - - -
31/05:00pm 15.7 W 5 6 1022.9 - - - - - - - - -
31/04:30pm 16.4 W 5 7 1022.8 - 0.0 - Partly cloudy - - - - -
31/04:00pm 16.3 WSW 4 6 1023.2 - 0.0 - Cloudy - - - - -
31/03:30pm 16.0 WSW 4 7 1023.6 - 0.0 - Cloudy - - - - -
31/03:00pm 16.2 SW 5 7 1023.9 - 0.0 - Cloudy - - - - -
31/02:30pm 16.2 WNW 9 11 1024.2 - 0.0 - Cloudy - - - - -
31/02:00pm 16.2 WNW 8 11 1024.6 - 0.0 - Cloudy - - - - -
31/01:30pm 15.7 WNW 8 10 1024.9 - 0.0 - Cloudy - - - - -
31/01:00pm 15.7 W 7 9 1025.2 - 0.0 - Cloudy - - - - -
31/12:30pm 16.0 WNW 8 9 1025.4 - 0.0 - Cloudy - - - - -
31/12:00pm 15.9 WNW 7 9 1025.6 - 0.0 - Cloudy - - - - -
31/11:30am 15.7 NW 8 11 1025.8 - 0.0 - Cloudy - - - - -
31/11:00am 15.4 NW 8 12 1025.9 - 0.0 - Cloudy - - - - -
31/10:30am 15.3 WNW 8 10 1025.9 - 0.0 - Cloudy - - - - -
31/10:00am 15.0 WNW 8 11 1025.8 - 0.0 - Cloudy - - - - -
31/09:30am 15.1 W 8 11 1025.9 - 0.0 - Cloudy - - - - -
31/09:00am 15.1 W 6 9 1025.9 - 0.0 - Cloudy - - - - -
31/08:30am 14.9 W 5 7 1025.7 - 0.0 - Cloudy - - - - -
31/08:00am 14.8 WSW 4 7 1025.2 - 0.0 - Cloudy - - - - -
31/07:30am 14.8 WNW 8 11 1025.2 - 0.0 - Cloudy - - - - -
31/07:00am 14.9 W 8 12 1024.9 - 0.0 - Cloudy - - - - -
31/06:30am 14.7 W 8 13 1024.7 - 0.0 - Cloudy - - - - -
31/06:00am 14.6 W 7 9 1024.4 - 0.0 - Partly cloudy - - - - -
31/05:30am 14.7 W 8 12 1024.3 - 0.0 - Partly cloudy - - - - -
31/05:00am 14.7 WSW 7 11 1024.2 - 0.0 - Partly cloudy - - - - -
31/04:30am 14.9 WSW 6 8 1024.3 - 0.0 - Partly cloudy - - - - -
31/04:00am 15.1 WSW 7 13 1024.4 - 0.0 - Cloudy - - - - -
31/03:30am 15.3 W 11 16 1024.5 - 0.0 - Cloudy - - - - -
31/03:00am 15.1 WNW 11 15 1024.8 - 0.0 - Cloudy - - - - -
31/02:30am 14.6 WNW 9 12 1024.6 - 0.0 - Cloudy - - - - -
31/02:00am 14.9 WNW 10 12 1024.8 - 0.0 - Partly cloudy - - - - -
31/01:30am 14.9 WNW 8 10 1024.7 - 0.0 - Cloudy - - - - -
31/01:00am 15.7 W 8 11 1024.9 - 0.0 - Cloudy - - - - -
31/12:30am 15.1 W 9 12 1024.9 - 0.0 - Cloudy - - - - -
31/12:00am 15.0 WNW 8 9 1025.1 - 0.0 - Cloudy - - - - -
 
Date/Time
EDT
Temp

°C
Wind Pressure Rain
since 9am
mm
Weather Cloud Vis
km
Sea
Height
m
Swell
Dir
 
Speed
knots
Gust
knots
hPa Trend Height
m
Period
s
Dir
30/11:30pm 14.9 WNW 5 6 1025.1 - 0.0 - Cloudy - - - - -
30/11:00pm 14.9 WNW 5 6 1025.1 - 0.0 - Partly cloudy - - - - -
30/10:51pm 15.0 W 5 7 1025.2 - 0.0 - Partly cloudy - - - - -
30/10:38pm 14.9 W 6 8 1025.2 - 0.0 - Partly cloudy - - - - -
30/10:30pm 14.9 WNW 5 7 1025.2 - 0.0 - Partly cloudy - - - - -
30/10:00pm 15.2 W 6 8 1025.1 - 0.0 - Partly cloudy - - - - -
30/09:30pm 15.2 W 4 7 1025.0 - 0.0 - Partly cloudy - - - - -
30/09:00pm 15.2 WSW 5 8 1024.9 - 0.0 - Mostly cloudy - - - - -
30/08:30pm 15.2 W 7 10 1024.7 - 0.0 - Cloudy - - - - -
30/08:00pm 15.2 WSW 7 10 1024.3 - 0.0 - Partly cloudy - - - - -
30/07:30pm 15.1 W 8 14 1024.1 - 0.0 - Partly cloudy - - - - -
30/07:00pm 14.8 WSW 9 16 1023.8 - 0.0 - Partly cloudy - - - - -
30/06:30pm 14.9 W 10 15 1023.7 - 0.0 - Partly cloudy - - - - -
30/06:00pm 15.4 W 11 15 1023.4 - 0.0 - Cloudy - - - - -
30/05:30pm 15.6 W 10 16 1023.2 - 0.0 - Partly cloudy - - - - -
30/05:00pm 15.7 W 11 17 1023.1 - 0.0 - Cloudy - - - - -
30/04:30pm 15.8 W 12 17 1023.0 - 0.0 - Partly cloudy - - - - -
30/04:00pm 16.0 W 11 16 1022.9 - 0.0 - Partly cloudy - - - - -
30/03:30pm 16.1 W 11 16 1022.9 - 0.0 - Partly cloudy - - - - -
30/03:00pm 15.6 W 11 17 1022.9 - 0.0 - Cloudy - - - - -
30/02:30pm 15.4 W 12 19 1022.8 - 0.0 - Partly cloudy - - - - -
30/02:00pm 15.9 W 12 18 1022.8 - 0.0 - Partly cloudy - - - - -
30/01:30pm 16.0 W 12 19 1023.0 - 0.0 - Partly cloudy - - - - -
30/01:00pm 16.0 W 17 22 1022.9 - 0.0 - Partly cloudy - - - - -
30/12:30pm 16.5 W 15 20 1022.9 - 0.0 - Partly cloudy - - - - -
30/12:00pm 16.0 W 14 17 1023.0 - 0.0 - Cloudy - - - - -
30/11:30am 16.1 W 15 19 1023.0 - 0.0 - Cloudy - - - - -
30/11:00am 15.9 W 13 17 1023.0 - 0.0 - Cloudy - - - - -
30/10:30am 15.7 W 13 18 1022.7 - 0.0 - Cloudy - - - - -
30/10:00am 15.7 W 13 18 1022.6 - 0.0 - Cloudy - - - - -
30/09:34am 15.3 W 14 19 1022.1 - 0.0 - Partly cloudy - - - - -
30/09:30am 15.0 W 14 19 1022.0 - 0.0 - Partly cloudy - - - - -
30/09:10am 15.4 W 16 20 1021.9 - 0.0 - Partly cloudy - - - - -
30/09:00am 15.2 WNW 15 20 1021.8 - 0.2 Recent precip. Cloudy - - - - -
30/08:30am 15.5 WNW 16 20 1021.4 - 0.0 - Partly cloudy - - - - -
30/08:00am 15.5 WNW 17 21 1021.3 - 0.0 - Partly cloudy - - - - -
30/07:30am 15.5 WNW 16 21 1021.0 - 0.0 - Partly cloudy - - - - -
30/07:00am 15.5 WNW 17 21 1020.8 - 0.0 - Partly cloudy - - - - -
30/06:30am 15.5 WNW 15 18 1020.5 - 0.0 - Partly cloudy - - - - -
30/06:00am 15.4 WNW 15 19 1020.4 - 0.0 - Cloudy - - - - -
30/05:30am 15.5 WNW 15 19 1020.3 - 0.0 - Cloudy - - - - -
30/05:01am 15.4 WNW 17 20 1020.3 - 0.0 - Partly cloudy - - - - -
30/05:00am 15.4 WNW 17 20 1020.3 - 0.0 - Partly cloudy - - - - -
30/04:44am 15.4 WNW 17 20 1020.3 - 0.0 - Partly cloudy - - - - -
30/04:30am 15.4 WNW 17 21 1020.4 - 0.0 - Partly cloudy - - - - -
30/04:00am 15.4 WNW 18 22 1020.3 - 0.0 - Partly cloudy - - - - -
30/03:30am 15.5 WNW 17 21 1020.4 - 0.0 - Partly cloudy - - - - -
30/03:00am 15.7 WNW 17 20 1020.6 - 0.0 - Cloudy - - - - -
30/02:30am 15.8 WNW 16 19 1020.7 - 0.0 - Partly cloudy - - - - -
30/02:00am 15.6 WNW 16 20 1020.8 - 0.0 - Cloudy - - - - -
30/01:30am 15.5 WNW 15 18 1020.9 - 0.0 - Cloudy - - - - -
30/01:17am 15.5 WNW 15 19 1020.9 - 0.0 - Partly cloudy - - - - -
30/01:00am 15.3 WNW 15 17 1020.9 - 0.0 - Partly cloudy - - - - -
30/12:34am 15.5 WNW 16 20 1020.9 - 0.0 - Partly cloudy - - - - -
30/12:30am 15.4 WNW 16 20 1020.9 - 0.0 - Partly cloudy - - - - -
30/12:00am 15.5 WNW 17 22 1021.0 - 0.0 - Cloudy - - - - -
 
Date/Time
EDT
Temp

°C
Wind Pressure Rain
since 9am
mm
Weather Cloud Vis
km
Sea
Height
m
Swell
Dir
 
Speed
knots
Gust
knots
hPa Trend Height
m
Period
s
Dir
29/11:30pm 15.6 WNW 18 21 1021.2 - 0.0 - Partly cloudy - - - - -
29/11:00pm 15.4 WNW 19 23 1021.2 - 0.0 - Partly cloudy - - - - -
29/10:30pm 15.4 WNW 17 21 1021.1 - 0.0 - Partly cloudy - - - - -
29/10:00pm 15.3 WNW 15 19 1021.0 - 0.0 - Partly cloudy - - - - -
29/09:30pm 15.5 WNW 15 18 1020.9 - 0.0 - Partly cloudy - - - - -
29/09:00pm 15.3 WNW 16 21 1020.6 - 0.0 - Mostly clear - - - - -
29/08:30pm 15.5 WNW 16 20 1020.4 - 0.0 - Cloudy - - - - -
29/08:00pm 15.4 W 17 22 1020.2 - 0.0 - Partly cloudy - - - - -
29/07:30pm 15.4 W 18 22 1019.9 - 0.0 - Partly cloudy - - - - -
29/07:00pm 15.5 W 17 23 1019.7 - 0.0 - Partly cloudy - - - - -
29/06:51pm 15.7 W 16 22 1019.7 - 0.0 - Partly cloudy - - - - -
29/06:34pm 15.7 W 19 24 1019.6 - 0.0 - Partly cloudy - - - - -
29/06:30pm 15.8 W 18 23 1019.5 - 0.0 - Partly cloudy - - - - -
29/06:00pm 16.0 WNW 17 23 1019.3 - 0.0 - Cloudy - - - - -
29/05:30pm 16.2 W 19 25 1019.3 - 0.0 - Partly cloudy - - - - -
29/05:00pm 16.1 W 19 26 1019.2 - 0.0 - Cloudy - - - - -
29/04:30pm 16.9 WNW 19 24 1019.1 - 0.0 - Partly cloudy - - - - -
29/04:00pm 16.9 W 19 25 1019.2 - 0.0 - Partly cloudy - - - - -
29/03:30pm 16.7 W 21 26 1019.3 - 0.0 - Partly cloudy - - - - -
29/03:00pm 17.3 WNW 21 26 1019.3 - 0.0 - Cloudy - - - - -
29/02:30pm 17.5 WNW 20 26 1019.3 - 0.0 - Partly cloudy - - - - -
29/02:00pm 17.6 WNW 20 26 1019.4 - 0.0 - Partly cloudy - - - - -
29/01:30pm 17.4 WNW 21 25 1019.4 - 0.0 - - - - - - -
29/01:00pm 17.2 WNW 20 24 1019.5 - 0.0 - Partly cloudy - - - - -
29/12:30pm 17.2 WNW 19 25 1019.6 - 0.0 - Partly cloudy - - - - -
29/12:00pm 16.9 WNW 19 23 1019.6 - 0.0 - Mostly clear - - - - -
29/11:30am 16.9 WNW 19 24 1019.7 - 0.0 - Partly cloudy - - - - -
29/11:00am 16.7 WNW 20 27 1019.7 - 0.0 - Partly cloudy - - - - -
29/10:30am 15.8 W 20 26 1019.6 - 0.0 - Partly cloudy - - - - -
29/10:00am 15.4 WNW 22 29 1019.4 - 0.0 - Partly cloudy - - - - -
29/09:30am 15.5 WNW 22 28 1019.2 - 0.0 - Partly cloudy - - - - -
29/09:00am 15.3 WNW 21 27 1019.0 - 0.0 - Mostly cloudy - - - - -
29/08:30am 15.2 WNW 19 25 1019.0 - 0.0 - Partly cloudy - - - - -
29/08:00am 15.1 WNW 19 23 1018.8 - 0.0 - Cloudy - - - - -
29/07:30am 14.8 WNW 16 23 1018.7 - 0.0 - Cloudy - - - - -
29/07:00am 14.7 WNW 17 21 1018.7 - 0.0 - Partly cloudy - - - - -
29/06:30am 14.5 WNW 18 24 1018.6 - 0.0 - Partly cloudy - - - - -
29/06:00am 14.7 W 17 24 1018.5 - 0.0 - Cloudy - - - - -
29/05:30am 14.5 W 21 27 1018.5 - 0.0 - Partly cloudy - - - - -
29/05:00am 14.3 WNW 19 23 1018.4 - 0.0 - Partly cloudy - - - - -
29/04:30am 14.2 W 15 24 1018.1 - 0.0 - Partly cloudy - - - - -
29/04:15am 14.8 W 20 30 1018.5 - 0.0 - Partly cloudy - - - - -
29/04:00am 14.6 WNW 20 26 1018.3 - 0.0 - Cloudy - - - - -

Other Formats:

Comma delimited format used in spreadsheet applications
http://www.bom.gov.au/fwo/IDV60701/IDV60701.95954.axf

JavaScript Object Notation format (JSON) in row-major order
http://www.bom.gov.au/fwo/IDV60701/IDV60701.95954.json